Ashford, West Virginia
Current Conditions -  °F | °C
As of 11:54 AM on Friday 21 Nov 2014 (Local Time) from KCRW Reporting Station
Clear Clear  
Wind Chill: 26°   Ceiling: Unl
Heat Index: 32°   Visibility: 10mi
Dew Point: 10°   Wind: 6mph
Humidity: 40%   Direction: NA
Pressure: 30.5"   Gusts: NA
Location:  38.18°N, 81.71°W
Report Text: KCRW 211654Z VRB05KT 10SM CLR 00/M12 A3050 RMK AO2 SLP337 T00001122
Loading
Personal Weather Stations






























Interactive Weather Map New forecast layout! Learn more

10-Day Weather Forecast

Advertisements
Track Severe Weather on mobile